Youngstown, Canada
Current Conditions -  °F | °C
As of 3:00 PM on Friday 24 Oct 2014 (Local Time) from CYKY Reporting Station
Few Clouds Few Clouds  
Wind Chill: 54°   Ceiling: Unl
Heat Index: 54°   Visibility: 15mi
Dew Point: 28°   Wind: 16mph
Humidity: 38%   Direction: 290°WNW
Pressure: 29.89"   Gusts: 26mph
Location:  51.53°N, 111.2°W
Report Text: CYKY 242100Z 29014G23KT 15SM FEW040 FEW080 12/M02 A2989 RMK CU1AC1 SLP134 DENSITY ALT 2400FT
Loading
Personal Weather Stations






























Interactive Weather Map
Tropical Storm Tracking
New forecast layout! Learn more

10-Day Weather Forecast

Advertisements
Track Severe Weather on mobile